Country
Station

 

Weather  for  Albany, Albany County Airport  -  United States    United States

  
20 °C (68 °F)
    
 
 

Current METAR for Albany, Albany County Airport is :

KALB 191451Z 36006KT 10SM FEW014 BKN034 BKN055 20/14 A2998 RMK AO2 SLP150 T02000144 51016

 

This is a report for Albany, Albany County Airport - United States.
 
The report was made 49 minutes ago, at 14:51 UTC .
The wind was blowing at a speed of 3.1 meters per second (6.9 miles per hour) from north (360°).
 
The temperature was 20 °C (68 °F), with a dew-point at 14 °C (57 °F).
The atmospheric pressure was 1015 hPa (29.98 inHg).
The relative humidity was 68.4%.
 
There were a few clouds at a height of 427 meters (1400 feet), broken clouds at a height of 1036 meters (3400 feet) and broken clouds at a height of 1676 meters (5500 feet).
 
The overall visibility was 16.1 kilometers (10.0 miles).
 

 
 
 
 

Country :   A   B   C   D   E   F   G   H   I   J   K   L   M   N   O   P   Q   R   S   T   U   V   W   Y   Z

 

Site Info  |  Disclaimer  |  Credits  |  Privacy
Contact us  |  Add to favorites
© 2013-2018 METARs - All rights reserved